createdAt,value
2023-03-18T00:00:16.803Z,9.08
2023-03-18T00:02:44.011Z,9.08
2023-03-18T00:05:12.962Z,9.11
2023-03-18T00:07:41.634Z,9.08
2023-03-18T00:10:11.980Z,9.11
2023-03-18T00:12:41.070Z,9.11
2023-03-18T00:15:11.828Z,9.10
2023-03-18T00:17:41.199Z,9.09
2023-03-18T00:20:09.835Z,9.08
2023-03-18T00:22:38.150Z,9.07
2023-03-18T00:25:08.210Z,9.04
2023-03-18T00:27:36.078Z,9.03
2023-03-18T00:30:05.620Z,8.98
2023-03-18T00:32:33.015Z,8.93
2023-03-18T00:35:01.195Z,8.92
2023-03-18T00:37:31.591Z,8.89
2023-03-18T00:40:06.117Z,8.87
2023-03-18T00:42:39.070Z,8.83
2023-03-18T00:45:10.373Z,8.78
2023-03-18T00:47:38.471Z,8.75
2023-03-18T00:50:08.861Z,8.71
2023-03-18T00:52:37.601Z,8.67
2023-03-18T00:55:06.906Z,8.63
2023-03-18T00:57:34.245Z,8.60
2023-03-18T01:00:01.251Z,8.55
2023-03-18T01:02:29.738Z,8.52
2023-03-18T01:04:57.104Z,8.48
2023-03-18T01:07:25.274Z,8.45
2023-03-18T01:09:52.736Z,8.44
2023-03-18T01:12:19.734Z,8.41
2023-03-18T01:14:47.033Z,8.39
2023-03-18T01:17:14.521Z,8.37
2023-03-18T01:19:42.328Z,8.35
2023-03-18T01:22:09.650Z,8.34
2023-03-18T01:24:36.574Z,8.32
2023-03-18T01:27:04.316Z,8.33
2023-03-18T01:29:31.241Z,8.33
2023-03-18T01:31:58.181Z,8.34
2023-03-18T01:34:25.183Z,8.34
2023-03-18T01:36:52.413Z,8.34
2023-03-18T01:39:19.372Z,8.33
2023-03-18T01:41:46.842Z,8.33
2023-03-18T01:44:23.304Z,8.33
2023-03-18T01:46:52.904Z,8.33
2023-03-18T01:49:36.445Z,8.33
2023-03-18T01:52:17.097Z,8.36
2023-03-18T01:54:55.949Z,8.36
2023-03-18T01:57:24.077Z,8.37
2023-03-18T01:59:53.890Z,8.39
2023-03-18T02:02:21.473Z,8.41
2023-03-18T02:04:55.077Z,8.41
2023-03-18T02:07:31.627Z,8.40
2023-03-18T02:10:03.672Z,8.42
2023-03-18T02:12:35.514Z,8.42
2023-03-18T02:15:10.501Z,8.41
2023-03-18T02:18:00.994Z,8.42
2023-03-18T02:20:45.962Z,8.42
2023-03-18T02:23:34.686Z,8.42
2023-03-18T02:26:28.729Z,8.42
2023-03-18T02:29:01.400Z,8.43
2023-03-18T02:31:29.682Z,8.45
2023-03-18T02:33:58.232Z,8.44
2023-03-18T02:36:28.329Z,8.44
2023-03-18T02:38:56.980Z,8.43
2023-03-18T02:41:32.438Z,8.43
2023-03-18T02:43:59.592Z,8.46
2023-03-18T02:46:49.175Z,8.44
2023-03-18T02:49:19.172Z,8.46
2023-03-18T02:51:46.709Z,8.45
2023-03-18T02:54:18.873Z,8.44
2023-03-18T02:56:46.088Z,8.43
2023-03-18T02:59:14.284Z,8.43
2023-03-18T03:01:44.792Z,8.43
2023-03-18T03:04:13.109Z,8.43
2023-03-18T03:06:40.736Z,8.42
2023-03-18T03:09:10.852Z,8.41
2023-03-18T03:11:38.124Z,8.39
2023-03-18T03:14:05.378Z,8.37
2023-03-18T03:16:32.324Z,8.33
2023-03-18T03:19:15.054Z,8.30
2023-03-18T03:22:15.423Z,8.28
2023-03-18T03:25:00.311Z,8.27
2023-03-18T03:27:41.254Z,8.25
2023-03-18T03:30:24.524Z,8.24
2023-03-18T03:33:06.474Z,8.25
2023-03-18T03:35:43.416Z,8.24
2023-03-18T03:38:22.843Z,8.24
2023-03-18T03:40:55.323Z,8.24
2023-03-18T03:43:52.694Z,8.23
2023-03-18T03:46:39.398Z,8.22
2023-03-18T03:49:18.733Z,8.20
2023-03-18T03:51:52.277Z,8.18
2023-03-18T03:54:48.321Z,8.16
2023-03-18T03:57:42.255Z,8.12
2023-03-18T04:00:22.844Z,8.10
2023-03-18T04:03:10.807Z,8.07
2023-03-18T04:05:39.950Z,8.06
2023-03-18T04:08:08.332Z,8.04
2023-03-18T04:10:39.306Z,8.03
2023-03-18T04:13:07.295Z,8.02
2023-03-18T04:15:34.789Z,8.01
2023-03-18T04:18:10.522Z,7.99
2023-03-18T04:20:49.782Z,7.98
2023-03-18T04:23:28.652Z,7.96
2023-03-18T04:26:13.444Z,7.94
2023-03-18T04:29:01.755Z,7.94
2023-03-18T04:31:43.457Z,7.91
2023-03-18T04:37:23.795Z,7.89
2023-03-18T04:40:01.324Z,7.89
2023-03-18T04:42:34.808Z,7.90
2023-03-18T04:45:16.395Z,7.90
2023-03-18T04:47:52.952Z,7.91
2023-03-18T04:50:53.505Z,7.91
2023-03-18T04:53:29.938Z,7.89
2023-03-18T04:56:10.541Z,7.90
2023-03-18T04:58:56.024Z,7.89
2023-03-18T05:01:27.089Z,7.88
2023-03-18T05:04:11.352Z,7.88
2023-03-18T05:06:51.258Z,7.87
2023-03-18T05:09:37.055Z,7.87
2023-03-18T05:12:21.608Z,7.86
2023-03-18T05:14:54.966Z,7.88
2023-03-18T05:17:32.186Z,7.87
2023-03-18T05:20:06.728Z,7.88
2023-03-18T05:22:49.566Z,7.87
2023-03-18T05:25:45.468Z,7.85
2023-03-18T05:28:31.280Z,7.85
2023-03-18T05:31:09.032Z,7.85
2023-03-18T05:33:51.569Z,7.85
2023-03-18T05:36:46.109Z,7.86
2023-03-18T05:39:28.975Z,7.88
2023-03-18T05:42:08.328Z,7.88
2023-03-18T05:44:52.630Z,7.90
2023-03-18T05:47:38.819Z,7.91
2023-03-18T05:50:14.260Z,7.94
2023-03-18T05:52:46.701Z,7.97
2023-03-18T05:55:20.953Z,8.01
2023-03-18T05:57:57.852Z,8.05
2023-03-18T06:00:35.602Z,8.10
2023-03-18T06:03:21.357Z,8.14
2023-03-18T06:05:53.759Z,8.20
2023-03-18T06:08:36.301Z,8.26
2023-03-18T06:11:18.433Z,8.31
2023-03-18T06:13:55.831Z,8.38
2023-03-18T06:16:35.976Z,8.43
2023-03-18T06:19:07.930Z,8.48
2023-03-18T06:21:50.910Z,8.54
2023-03-18T06:24:28.025Z,8.60
2023-03-18T06:27:06.463Z,8.67
2023-03-18T06:29:51.956Z,8.70
2023-03-18T06:32:33.778Z,8.73
2023-03-18T06:35:11.230Z,8.74
2023-03-18T06:38:02.166Z,8.77
2023-03-18T06:40:42.148Z,8.84
2023-03-18T06:43:25.215Z,8.89
2023-03-18T06:45:57.337Z,8.93
2023-03-18T06:48:43.078Z,8.96
2023-03-18T06:51:16.568Z,9.00
2023-03-18T06:53:48.463Z,9.03
2023-03-18T06:56:25.143Z,9.09
2023-03-18T06:59:12.629Z,9.18
2023-03-18T07:01:50.106Z,9.33
2023-03-18T07:04:34.621Z,9.55
2023-03-18T07:07:02.682Z,9.95
2023-03-18T07:09:36.865Z,10.34
2023-03-18T07:12:11.981Z,10.69
2023-03-18T07:14:46.652Z,11.06
2023-03-18T07:17:34.074Z,11.41
2023-03-18T07:20:08.808Z,11.85
2023-03-18T07:22:41.262Z,12.30
2023-03-18T07:25:22.820Z,12.76
2023-03-18T07:27:59.748Z,13.30
2023-03-18T07:30:37.253Z,13.81
2023-03-18T07:33:16.320Z,13.96
2023-03-18T07:35:54.504Z,14.04
2023-03-18T07:38:52.920Z,14.32
2023-03-18T07:41:37.893Z,14.79
2023-03-18T07:44:13.248Z,15.31
2023-03-18T07:46:57.925Z,15.95
2023-03-18T07:49:25.673Z,16.44
2023-03-18T07:52:06.710Z,16.66
2023-03-18T07:54:43.159Z,17.19
2023-03-18T07:57:25.617Z,17.79
2023-03-18T08:00:07.446Z,18.48
2023-03-18T08:02:46.087Z,19.18
2023-03-18T08:05:20.408Z,19.73
2023-03-18T08:08:17.550Z,20.07
2023-03-18T08:11:06.983Z,20.18
2023-03-18T08:13:35.712Z,20.21
2023-03-18T08:16:07.237Z,20.39
2023-03-18T08:18:54.050Z,20.83
2023-03-18T08:21:25.324Z,21.23
2023-03-18T08:23:58.859Z,21.44
2023-03-18T08:26:29.648Z,21.48
2023-03-18T08:29:01.459Z,21.61
2023-03-18T08:31:29.351Z,21.70
2023-03-18T08:34:02.118Z,21.72
2023-03-18T08:36:39.043Z,22.00
2023-03-18T08:39:13.345Z,22.51
2023-03-18T08:41:45.795Z,22.97
2023-03-18T08:44:20.533Z,23.05
2023-03-18T08:47:02.814Z,22.74
2023-03-18T08:49:36.217Z,22.50
2023-03-18T08:52:20.808Z,22.23
2023-03-18T08:54:58.059Z,21.81
2023-03-18T08:57:36.475Z,21.45
2023-03-18T09:00:12.915Z,21.14
2023-03-18T09:02:59.351Z,20.75
2023-03-18T09:05:59.931Z,20.47
2023-03-18T09:08:49.148Z,20.39
2023-03-18T09:11:38.114Z,20.30
2023-03-18T09:14:29.020Z,20.10
2023-03-18T09:17:08.314Z,19.83
2023-03-18T09:23:45.305Z,20.75
2023-03-18T09:26:12.795Z,21.58
2023-03-18T09:28:39.662Z,22.12
2023-03-18T09:31:06.842Z,22.34
2023-03-18T09:33:36.915Z,22.23
2023-03-18T09:36:05.279Z,22.43
2023-03-18T09:38:32.429Z,22.73
2023-03-18T09:41:08.143Z,23.11
2023-03-18T09:44:17.770Z,23.38
2023-03-18T09:47:34.601Z,23.66
2023-03-18T09:50:29.121Z,24.24
2023-03-18T09:53:37.620Z,24.82
2023-03-18T09:56:06.328Z,25.39
2023-03-18T09:58:48.487Z,25.84
2023-03-18T10:01:16.885Z,-94.55
2023-03-18T10:04:08.165Z,-141.23
2023-03-18T10:06:37.576Z,-141.23
2023-03-18T10:09:04.398Z,-141.23
2023-03-18T10:11:35.903Z,-141.23
2023-03-18T10:14:24.389Z,-141.23
2023-03-18T10:17:31.286Z,-141.23
2023-03-18T10:20:04.488Z,-141.23
2023-03-18T10:22:54.894Z,-141.23
2023-03-18T10:25:30.935Z,-141.23
2023-03-18T10:28:39.124Z,-141.23
2023-03-18T10:31:07.285Z,-141.23
2023-03-18T10:34:04.315Z,-141.23
2023-03-18T10:37:16.301Z,-141.23
2023-03-18T10:39:45.706Z,-141.23
2023-03-18T10:42:30.768Z,-141.23
2023-03-18T10:45:23.331Z,-141.23
2023-03-18T10:48:10.676Z,-141.23
2023-03-18T10:50:46.424Z,-141.23
2023-03-18T10:53:37.055Z,-141.23
2023-03-18T10:56:10.564Z,-141.23
2023-03-18T10:58:41.909Z,-141.23
2023-03-18T11:01:13.143Z,-141.23
2023-03-18T11:03:52.085Z,-141.23
2023-03-18T11:06:41.709Z,-141.23
2023-03-18T11:09:17.025Z,-141.23
2023-03-18T11:11:50.299Z,-141.23
2023-03-18T11:14:22.872Z,-141.23
2023-03-18T11:17:00.068Z,-141.23
2023-03-18T11:19:38.586Z,-141.23
2023-03-18T11:22:23.427Z,-141.23
2023-03-18T11:25:16.433Z,-141.23
2023-03-18T11:31:11.159Z,-141.23
2023-03-18T11:33:38.893Z,-141.23
2023-03-18T11:36:09.015Z,-141.23
2023-03-18T11:38:37.538Z,-141.23
2023-03-18T11:41:08.950Z,-141.23
2023-03-18T11:43:38.392Z,-141.23
2023-03-18T11:46:09.034Z,-141.23
2023-03-18T11:48:40.539Z,-141.23
2023-03-18T11:51:28.627Z,-141.23
2023-03-18T11:54:22.560Z,-141.23
2023-03-18T11:56:58.082Z,-141.23
2023-03-18T11:59:38.429Z,-141.23
2023-03-18T12:02:35.404Z,-141.23
2023-03-18T12:05:39.281Z,-141.23
2023-03-18T12:08:28.180Z,-141.23
2023-03-18T12:11:25.331Z,-141.23
2023-03-18T12:14:33.410Z,-141.23
2023-03-18T12:17:15.204Z,-141.23
2023-03-18T12:20:09.979Z,-141.23
2023-03-18T12:22:44.600Z,-141.23
2023-03-18T12:25:37.053Z,-141.23
2023-03-18T12:28:26.569Z,-141.23
2023-03-18T12:31:20.001Z,-141.23
2023-03-18T12:34:04.354Z,-141.23
2023-03-18T12:36:57.391Z,-141.23
2023-03-18T12:40:12.612Z,-141.23
2023-03-18T12:43:35.408Z,-141.23
2023-03-18T12:46:19.188Z,-141.23
2023-03-18T12:49:23.896Z,-141.23
2023-03-18T12:52:02.843Z,-141.23
2023-03-18T12:54:40.291Z,-141.23
2023-03-18T12:57:22.880Z,-141.23
2023-03-18T12:59:59.134Z,-141.23
2023-03-18T13:02:50.963Z,-141.23
2023-03-18T13:05:45.536Z,-141.23
2023-03-18T13:08:24.312Z,-141.23
2023-03-18T13:11:05.148Z,-141.23
2023-03-18T13:13:35.642Z,-141.23
2023-03-18T13:16:04.994Z,-141.23
2023-03-18T13:18:43.783Z,-141.23
2023-03-18T13:21:21.306Z,-141.23
2023-03-18T13:24:13.663Z,-141.23
2023-03-18T13:27:27.948Z,-141.23
2023-03-18T13:30:16.447Z,-141.23
2023-03-18T13:32:58.312Z,-141.23
2023-03-18T13:35:43.616Z,-141.23
2023-03-18T13:38:45.950Z,-141.23
2023-03-18T13:42:03.873Z,-141.23
2023-03-18T13:44:46.121Z,-141.23
2023-03-18T13:47:19.438Z,-141.23
2023-03-18T13:49:47.677Z,-141.23
2023-03-18T13:52:33.738Z,-141.23
2023-03-18T13:55:07.342Z,-141.23
2023-03-18T13:57:48.749Z,-141.23
2023-03-18T14:00:36.208Z,-141.23
2023-03-18T14:03:31.483Z,-141.23
2023-03-18T14:06:04.515Z,-141.23
2023-03-18T14:08:42.285Z,-141.23
2023-03-18T14:11:22.800Z,-141.23
2023-03-18T14:13:55.645Z,-141.23
2023-03-18T14:16:30.878Z,-141.23
2023-03-18T14:19:22.475Z,-141.23
2023-03-18T14:22:16.052Z,-141.23
2023-03-18T14:24:44.639Z,-141.23
2023-03-18T14:27:18.856Z,-141.23
2023-03-18T14:29:48.020Z,-141.23
2023-03-18T14:32:33.615Z,-141.23
2023-03-18T14:35:18.630Z,-141.23
2023-03-18T14:38:25.074Z,-141.23
2023-03-18T14:40:54.687Z,-141.23
2023-03-18T14:43:30.079Z,-141.23
2023-03-18T14:46:02.818Z,-141.23
2023-03-18T14:48:34.011Z,-141.23
2023-03-18T14:51:09.016Z,-141.23
2023-03-18T14:53:53.557Z,-141.23
2023-03-18T14:56:29.311Z,-141.23
2023-03-18T14:58:56.682Z,-141.23
2023-03-18T15:01:46.273Z,-141.23
2023-03-18T15:04:22.708Z,-141.23
2023-03-18T15:06:50.842Z,-141.23
2023-03-18T15:09:30.195Z,-141.23
2023-03-18T15:11:57.723Z,-141.23
2023-03-18T15:14:30.042Z,-141.23
2023-03-18T15:17:01.790Z,-141.23
2023-03-18T15:19:29.908Z,-141.23
2023-03-18T15:22:06.275Z,-141.23
2023-03-18T15:24:33.698Z,-141.23
2023-03-18T15:27:22.684Z,-141.23
2023-03-18T15:29:55.893Z,-141.23
2023-03-18T15:32:52.443Z,-141.23
2023-03-18T15:35:30.359Z,-141.23
2023-03-18T15:38:10.059Z,-141.23
2023-03-18T15:41:14.082Z,-141.23
2023-03-18T15:43:49.900Z,-141.23
2023-03-18T15:46:28.451Z,-141.23
2023-03-18T15:48:57.217Z,-141.23
2023-03-18T15:51:47.806Z,-141.23
2023-03-18T15:54:29.381Z,-141.23
2023-03-18T15:56:58.957Z,-141.23
2023-03-18T15:59:34.857Z,-141.23
2023-03-18T16:02:02.209Z,-141.23
2023-03-18T16:04:34.177Z,-141.23
2023-03-18T16:07:01.160Z,-141.23
2023-03-18T16:09:28.093Z,-141.23
2023-03-18T16:12:05.583Z,-141.23
2023-03-18T16:14:39.882Z,-141.23
2023-03-18T16:17:07.034Z,-141.23
2023-03-18T16:19:34.065Z,-141.23
2023-03-18T16:22:02.453Z,-141.23
2023-03-18T16:24:29.845Z,-141.23
2023-03-18T16:26:57.407Z,-141.23
2023-03-18T16:29:34.407Z,-141.23
2023-03-18T16:32:01.843Z,-141.23
2023-03-18T16:34:28.897Z,-141.23
2023-03-18T16:36:56.097Z,-141.23
2023-03-18T16:39:29.135Z,-141.23
2023-03-18T16:41:56.390Z,-141.23
2023-03-18T16:44:23.680Z,-141.23
2023-03-18T16:46:54.473Z,-141.23
2023-03-18T16:49:31.174Z,-141.23
2023-03-18T16:51:58.795Z,-141.23
2023-03-18T16:54:28.953Z,-141.23
2023-03-18T16:57:06.944Z,-141.23
2023-03-18T16:59:37.111Z,-141.23
2023-03-18T17:02:04.781Z,-141.23
2023-03-18T17:04:35.617Z,-141.23
2023-03-18T17:07:04.654Z,-141.23
2023-03-18T17:09:32.074Z,-141.23
2023-03-18T17:12:04.640Z,-141.23
2023-03-18T17:14:46.823Z,-141.23
2023-03-18T17:17:38.119Z,-141.23
2023-03-18T17:20:17.676Z,-141.23
2023-03-18T17:22:45.060Z,-141.23
2023-03-18T17:25:12.287Z,-141.23
2023-03-18T17:27:57.112Z,-141.23
2023-03-18T17:30:38.905Z,-141.23
2023-03-18T17:33:31.653Z,-141.23
2023-03-18T17:36:01.495Z,-141.23
2023-03-18T17:38:31.127Z,-141.23
2023-03-18T17:40:59.679Z,-141.23
2023-03-18T17:43:35.888Z,-141.23
2023-03-18T17:46:04.819Z,-141.23
2023-03-18T17:48:35.043Z,-141.23
2023-03-18T17:51:05.198Z,-141.23
2023-03-18T17:53:48.168Z,-141.23
2023-03-18T17:56:18.373Z,-141.23
2023-03-18T17:58:47.913Z,-141.23
2023-03-18T18:01:22.229Z,-141.23
2023-03-18T18:04:01.024Z,-141.23
2023-03-18T18:06:35.429Z,-141.23
2023-03-18T18:09:26.969Z,-141.23
2023-03-18T18:11:58.096Z,-141.23
2023-03-18T18:14:38.974Z,-141.23
2023-03-18T18:17:25.474Z,-141.23
2023-03-18T18:20:04.205Z,-141.23
2023-03-18T18:23:02.344Z,-141.23
2023-03-18T18:25:53.133Z,-141.23
2023-03-18T18:28:27.396Z,-141.23
2023-03-18T18:31:04.558Z,-141.23
2023-03-18T18:33:48.992Z,-141.23
2023-03-18T18:36:53.060Z,-141.23
2023-03-18T18:39:26.496Z,-141.23
2023-03-18T18:42:19.839Z,-141.23
2023-03-18T18:45:08.675Z,-141.23
2023-03-18T18:47:54.821Z,-141.23
2023-03-18T18:50:40.139Z,-141.23
2023-03-18T18:53:30.442Z,-141.23
2023-03-18T18:56:17.396Z,-141.23
2023-03-18T18:58:55.552Z,-141.23
2023-03-18T19:01:35.208Z,-141.23
2023-03-18T19:04:09.225Z,-141.23
2023-03-18T19:06:57.876Z,-141.23
2023-03-18T19:09:34.837Z,-141.23
2023-03-18T19:12:09.381Z,-141.23
2023-03-18T19:14:49.477Z,-141.23
2023-03-18T19:17:27.779Z,-141.23
2023-03-18T19:20:01.658Z,-141.23
2023-03-18T19:22:33.009Z,-141.23
2023-03-18T19:25:23.123Z,-141.23
2023-03-18T19:27:52.305Z,-141.23
2023-03-18T19:30:32.945Z,-141.23
